VIAG/AGR METAR and TAF weather

Enter ICAO airport designator
Station Type Date Time Source
VIAG METAR 2023/01/29 13:00 UTC NOAA

VIAG 291300Z 02005KT 5000 HZ FEW030 SCT250 18/12 Q1015 NOSIG


Station Type Date Time Source
VIAG Decoded METAR 2023/01/29 13:00 UTC NOAA

Agra, India (VIAG) 27-09N 077-58E 169M
Jan 29, 2023 - 08:00 AM EST / 2023.01.29 1300 UTC
Wind: from the NNE (020 degrees) at 6 MPH (5 KT):0
Visibility: 3 mile(s):0
Sky conditions: partly cloudy
Weather: haze
Temperature: 64 F (18 C)
Dew Point: 53 F (12 C)
Relative Humidity: 67%
Pressure (altimeter): 29.97 in. Hg (1015 hPa)
ob: VIAG 291300Z 02005KT 5000 HZ FEW030 SCT250 18/12 Q1015 NOSIG
cycle: 13

Station Type Date Time Source
VIAG TAF 2023/01/30 12:00 UTC NOAA

TAF VIAG 301100Z 3012/3118 30005KT 1000 BR SCT025 BKN090
BECMG 3013/3016 0600 FG VV///
TEMPO 3023/3102 0350 FG
BECMG 3103/3104 0800 FG SCT090 SCT250
BECMG 3105/3106 30006KT 1500 BR
BECMG 3107/3108 3000 HZ
BECMG 3109/3110 5000 HZ FEW250
BECMG 3115/3117 3000 BR

Example: see airport list